createdAt,value
2022-08-28T00:00:21.179Z,7.70
2022-08-28T00:01:23.417Z,7.53
2022-08-28T00:02:25.674Z,8.88
2022-08-28T00:03:28.027Z,11.38
2022-08-28T00:04:34.220Z,11.20
2022-08-28T00:05:38.997Z,10.40
2022-08-28T00:06:41.224Z,10.48
2022-08-28T00:07:47.686Z,11.40
2022-08-28T00:08:50.285Z,9.88
2022-08-28T00:09:52.512Z,11.35
2022-08-28T00:10:58.170Z,10.63
2022-08-28T00:12:00.982Z,11.60
2022-08-28T00:13:03.340Z,13.55
2022-08-28T00:14:07.472Z,11.25
2022-08-28T00:15:22.014Z,11.35
2022-08-28T00:16:24.611Z,11.23
2022-08-28T00:17:28.873Z,11.75
2022-08-28T00:18:31.627Z,12.80
2022-08-28T00:19:38.458Z,10.60
2022-08-28T00:20:41.666Z,11.13
2022-08-28T00:21:47.266Z,12.18
2022-08-28T00:22:51.200Z,11.25
2022-08-28T00:23:53.751Z,11.38
2022-08-28T00:24:55.992Z,12.65
2022-08-28T00:25:58.406Z,11.88
2022-08-28T00:27:22.061Z,12.68
2022-08-28T00:28:24.706Z,12.43
2022-08-28T00:29:29.808Z,14.55
2022-08-28T00:30:42.411Z,14.82
2022-08-28T00:31:44.762Z,11.48
2022-08-28T00:32:47.086Z,14.30
2022-08-28T00:33:49.307Z,13.32
2022-08-28T00:34:53.419Z,11.93
2022-08-28T00:35:57.374Z,11.90
2022-08-28T00:37:00.293Z,11.90
2022-08-28T00:38:02.608Z,13.95
2022-08-28T00:39:06.451Z,12.98
2022-08-28T00:40:10.220Z,13.40
2022-08-28T00:41:12.582Z,13.63
2022-08-28T00:42:17.508Z,12.32
2022-08-28T00:43:26.577Z,12.52
2022-08-28T00:44:30.061Z,11.85
2022-08-28T00:45:38.738Z,12.02
2022-08-28T00:46:45.293Z,15.65
2022-08-28T00:47:48.702Z,13.18
2022-08-28T00:48:50.968Z,12.45
2022-08-28T00:49:56.408Z,16.10
2022-08-28T00:51:18.155Z,13.30
2022-08-28T00:52:23.770Z,13.05
2022-08-28T00:53:29.073Z,11.70
2022-08-28T00:54:58.405Z,13.10
2022-08-28T00:56:12.865Z,12.93
2022-08-28T00:57:20.156Z,13.77
2022-08-28T00:58:23.412Z,12.98
2022-08-28T00:59:26.078Z,12.73
2022-08-28T01:00:31.041Z,12.35
2022-08-28T01:01:33.384Z,13.65
2022-08-28T01:02:36.031Z,12.40
2022-08-28T01:03:41.523Z,13.18
2022-08-28T01:04:44.054Z,13.25
2022-08-28T01:05:49.331Z,13.15
2022-08-28T01:06:54.591Z,13.52
2022-08-28T01:07:59.001Z,13.50
2022-08-28T01:09:01.387Z,13.18
2022-08-28T01:10:05.637Z,12.25
2022-08-28T01:11:10.936Z,12.52
2022-08-28T01:12:19.681Z,15.48
2022-08-28T01:13:24.213Z,13.88
2022-08-28T01:14:30.977Z,13.18
2022-08-28T01:15:36.864Z,13.65
2022-08-28T01:16:40.300Z,12.90
2022-08-28T01:17:46.143Z,13.25
2022-08-28T01:18:53.077Z,13.15
2022-08-28T01:20:00.288Z,14.43
2022-08-28T01:21:13.557Z,15.05
2022-08-28T01:22:40.183Z,12.60
2022-08-28T01:23:53.967Z,12.25
2022-08-28T01:24:59.178Z,12.25
2022-08-28T01:26:01.491Z,14.35
2022-08-28T01:27:08.796Z,12.88
2022-08-28T01:28:13.825Z,13.88
2022-08-28T01:29:16.439Z,14.50
2022-08-28T01:30:21.680Z,13.95
2022-08-28T01:31:25.471Z,14.85
2022-08-28T01:32:43.361Z,14.52
2022-08-28T01:33:46.506Z,14.27
2022-08-28T01:34:48.773Z,16.33
2022-08-28T01:35:53.532Z,14.10
2022-08-28T01:36:55.722Z,14.85
2022-08-28T01:38:02.048Z,14.65
2022-08-28T01:39:19.503Z,13.95
2022-08-28T01:40:31.013Z,14.75
2022-08-28T01:41:34.048Z,15.63
2022-08-28T01:42:40.898Z,16.10
2022-08-28T01:43:44.060Z,14.65
2022-08-28T01:44:46.595Z,14.32
2022-08-28T01:45:54.819Z,14.75
2022-08-28T01:46:58.596Z,14.70
2022-08-28T01:48:00.773Z,14.63
2022-08-28T01:49:04.006Z,14.73
2022-08-28T01:50:08.377Z,14.07
2022-08-28T01:51:12.193Z,14.23
2022-08-28T01:52:14.356Z,15.48
2022-08-28T01:53:19.650Z,15.25
2022-08-28T01:54:30.263Z,14.95
2022-08-28T01:55:35.863Z,14.48
2022-08-28T01:56:43.041Z,16.45
2022-08-28T01:57:48.033Z,17.65
2022-08-28T01:58:50.538Z,15.77
2022-08-28T01:59:54.489Z,17.48
2022-08-28T02:00:57.602Z,14.48
2022-08-28T02:01:59.896Z,15.82
2022-08-28T02:03:02.992Z,15.68
2022-08-28T02:04:06.142Z,13.88
2022-08-28T02:05:10.239Z,17.33
2022-08-28T02:06:13.822Z,19.48
2022-08-28T02:07:17.072Z,15.98
2022-08-28T02:08:20.606Z,14.82
2022-08-28T02:09:22.805Z,16.42
2022-08-28T02:10:27.114Z,15.93
2022-08-28T02:11:32.298Z,15.77
2022-08-28T02:12:34.736Z,16.63
2022-08-28T02:13:37.743Z,14.50
2022-08-28T02:14:39.974Z,18.70
2022-08-28T02:15:43.892Z,16.35
2022-08-28T02:16:46.639Z,14.80
2022-08-28T02:17:48.836Z,16.45
2022-08-28T02:18:51.052Z,15.45
2022-08-28T02:19:53.308Z,16.13
2022-08-28T02:20:55.895Z,14.45
2022-08-28T02:21:58.088Z,16.13
2022-08-28T02:23:00.961Z,16.42
2022-08-28T02:24:04.582Z,16.80
2022-08-28T02:25:07.784Z,17.20
2022-08-28T02:26:14.927Z,15.35
2022-08-28T02:27:17.207Z,16.02
2022-08-28T02:28:19.372Z,15.77
2022-08-28T02:29:22.111Z,19.08
2022-08-28T02:30:24.856Z,17.25
2022-08-28T02:31:27.635Z,15.80
2022-08-28T02:32:30.013Z,16.30
2022-08-28T02:33:32.319Z,15.27
2022-08-28T02:34:35.215Z,15.38
2022-08-28T02:35:42.619Z,17.75
2022-08-28T02:36:44.817Z,14.85
2022-08-28T02:37:47.913Z,17.40
2022-08-28T02:38:56.867Z,16.92
2022-08-28T02:40:02.559Z,16.20
2022-08-28T02:41:08.460Z,15.85
2022-08-28T02:42:10.639Z,16.77
2022-08-28T02:43:13.431Z,15.77
2022-08-28T02:44:15.601Z,15.63
2022-08-28T02:45:19.931Z,16.33
2022-08-28T02:46:22.127Z,16.10
2022-08-28T02:47:24.469Z,15.57
2022-08-28T02:48:31.761Z,16.38
2022-08-28T02:49:36.056Z,15.88
2022-08-28T02:50:41.538Z,17.15
2022-08-28T02:51:43.863Z,15.63
2022-08-28T02:52:46.921Z,19.30
2022-08-28T02:53:50.569Z,14.88
2022-08-28T02:54:52.735Z,15.48
2022-08-28T02:55:55.476Z,15.13
2022-08-28T02:56:58.756Z,18.27
2022-08-28T02:58:01.091Z,16.23
2022-08-28T02:59:03.619Z,15.45
2022-08-28T03:00:12.048Z,15.85
2022-08-28T03:01:14.497Z,18.65
2022-08-28T03:02:17.096Z,15.68
2022-08-28T03:03:20.409Z,14.23
2022-08-28T03:04:25.586Z,16.65
2022-08-28T03:05:27.769Z,16.58
2022-08-28T03:06:33.846Z,16.73
2022-08-28T03:07:36.185Z,15.68
2022-08-28T03:08:39.746Z,15.13
2022-08-28T03:09:43.710Z,14.38
2022-08-28T03:10:45.905Z,15.73
2022-08-28T03:11:48.831Z,19.33
2022-08-28T03:12:51.847Z,14.40
2022-08-28T03:13:54.520Z,16.10
2022-08-28T03:14:57.052Z,16.13
2022-08-28T03:15:59.578Z,14.15
2022-08-28T03:17:08.039Z,16.42
2022-08-28T03:18:11.489Z,15.30
2022-08-28T03:19:13.711Z,15.85
2022-08-28T03:20:16.453Z,15.75
2022-08-28T03:21:20.970Z,16.02
2022-08-28T03:22:43.206Z,13.88
2022-08-28T03:23:45.442Z,13.50
2022-08-28T03:24:47.726Z,14.57
2022-08-28T03:25:50.931Z,13.93
2022-08-28T03:26:53.160Z,15.65
2022-08-28T03:27:56.116Z,14.38
2022-08-28T03:28:59.792Z,14.40
2022-08-28T03:30:07.150Z,13.95
2022-08-28T03:31:11.912Z,15.82
2022-08-28T03:32:14.170Z,13.32
2022-08-28T03:33:16.761Z,15.23
2022-08-28T03:34:19.023Z,13.15
2022-08-28T03:35:22.047Z,13.50
2022-08-28T03:36:26.674Z,12.98
2022-08-28T03:37:28.916Z,13.95
2022-08-28T03:38:31.160Z,13.60
2022-08-28T03:39:33.372Z,12.77
2022-08-28T03:40:39.770Z,15.98
2022-08-28T03:41:44.966Z,14.65
2022-08-28T03:42:53.458Z,11.82
2022-08-28T03:44:01.319Z,11.60
2022-08-28T03:45:05.276Z,15.05
2022-08-28T03:46:09.182Z,11.80
2022-08-28T03:47:12.860Z,13.60
2022-08-28T03:48:15.486Z,12.93
2022-08-28T03:49:20.479Z,12.15
2022-08-28T03:50:23.386Z,13.80
2022-08-28T03:51:31.537Z,14.18
2022-08-28T03:52:33.706Z,12.85
2022-08-28T03:53:37.324Z,12.23
2022-08-28T03:54:39.567Z,12.25
2022-08-28T03:55:43.053Z,15.02
2022-08-28T03:56:45.264Z,12.57
2022-08-28T03:57:47.558Z,12.07
2022-08-28T03:58:52.484Z,11.02
2022-08-28T03:59:55.288Z,12.45
2022-08-28T04:01:00.491Z,10.40
2022-08-28T04:02:02.805Z,12.82
2022-08-28T04:03:05.030Z,10.57
2022-08-28T04:04:07.729Z,13.18
2022-08-28T04:05:11.262Z,13.35
2022-08-28T04:06:14.405Z,12.32
2022-08-28T04:07:17.636Z,12.65
2022-08-28T04:08:20.742Z,12.82
2022-08-28T04:09:23.012Z,11.05
2022-08-28T04:10:25.217Z,13.32
2022-08-28T04:11:28.423Z,12.07
2022-08-28T04:12:32.841Z,12.73
2022-08-28T04:13:37.703Z,12.10
2022-08-28T04:14:40.057Z,10.00
2022-08-28T04:15:44.879Z,11.27
2022-08-28T04:16:47.131Z,13.02
2022-08-28T04:17:49.655Z,11.68
2022-08-28T04:18:54.113Z,12.25
2022-08-28T04:19:56.509Z,11.43
2022-08-28T04:21:05.700Z,12.02
2022-08-28T04:22:08.404Z,10.88
2022-08-28T04:23:15.697Z,15.98
2022-08-28T04:24:18.049Z,13.50
2022-08-28T04:25:21.613Z,11.75
2022-08-28T04:26:26.535Z,11.90
2022-08-28T04:27:28.790Z,11.07
2022-08-28T04:28:32.761Z,11.20
2022-08-28T04:29:34.950Z,10.75
2022-08-28T04:30:37.164Z,12.38
2022-08-28T04:31:39.508Z,10.55
2022-08-28T04:32:42.109Z,10.30
2022-08-28T04:33:48.085Z,11.30
2022-08-28T04:34:50.640Z,11.60
2022-08-28T04:35:53.207Z,14.20
2022-08-28T04:36:55.464Z,11.40
2022-08-28T04:37:59.961Z,10.77
2022-08-28T04:39:06.056Z,9.82
2022-08-28T04:40:11.009Z,10.50
2022-08-28T04:41:15.904Z,11.55
2022-08-28T04:42:18.304Z,10.18
2022-08-28T04:43:21.333Z,9.63
2022-08-28T04:44:26.058Z,10.18
2022-08-28T04:45:30.073Z,11.07
2022-08-28T04:46:32.426Z,11.73
2022-08-28T04:47:38.601Z,9.85
2022-08-28T04:48:42.192Z,12.20
2022-08-28T04:49:44.409Z,9.57
2022-08-28T04:50:51.728Z,8.70
2022-08-28T04:51:54.499Z,10.50
2022-08-28T04:52:56.868Z,9.95
2022-08-28T04:53:59.354Z,9.10
2022-08-28T04:55:02.521Z,10.80
2022-08-28T04:56:07.211Z,11.80
2022-08-28T04:57:09.429Z,10.27
2022-08-28T04:58:11.770Z,8.80
2022-08-28T04:59:17.667Z,10.07
2022-08-28T05:00:19.928Z,7.78
2022-08-28T05:01:27.061Z,11.70
2022-08-28T05:02:29.533Z,9.55
2022-08-28T05:03:35.432Z,7.95
2022-08-28T05:04:37.689Z,10.95
2022-08-28T05:05:45.283Z,7.30
2022-08-28T05:06:47.719Z,7.45
2022-08-28T05:07:49.928Z,11.80
2022-08-28T05:08:52.403Z,7.28
2022-08-28T05:09:54.780Z,9.45
2022-08-28T05:10:58.277Z,7.72
2022-08-28T05:12:03.909Z,9.30
2022-08-28T05:13:09.400Z,6.65
2022-08-28T05:14:16.319Z,8.70
2022-08-28T05:15:18.694Z,9.07
2022-08-28T05:16:22.621Z,11.75
2022-08-28T05:17:24.831Z,9.77
2022-08-28T05:18:28.395Z,7.70
2022-08-28T05:19:32.876Z,7.72
2022-08-28T05:20:37.221Z,8.57
2022-08-28T05:21:42.792Z,8.63
2022-08-28T05:22:44.986Z,9.55
2022-08-28T05:23:53.722Z,6.95
2022-08-28T05:24:55.951Z,6.70
2022-08-28T05:25:58.380Z,7.63
2022-08-28T05:27:01.539Z,7.05
2022-08-28T05:28:04.160Z,8.88
2022-08-28T05:29:07.594Z,9.23
2022-08-28T05:30:10.704Z,8.25
2022-08-28T05:31:18.526Z,6.80
2022-08-28T05:32:21.663Z,11.50
2022-08-28T05:33:27.023Z,8.48
2022-08-28T05:34:29.251Z,8.57
2022-08-28T05:35:45.888Z,8.85
2022-08-28T05:36:48.992Z,5.45
2022-08-28T05:37:54.930Z,9.65
2022-08-28T05:38:58.113Z,8.52
2022-08-28T05:40:00.449Z,9.00
2022-08-28T05:41:03.763Z,7.13
2022-08-28T05:42:06.159Z,9.05
2022-08-28T05:43:10.916Z,8.52
2022-08-28T05:44:16.484Z,8.00
2022-08-28T05:45:19.138Z,8.45
2022-08-28T05:46:23.316Z,7.20
2022-08-28T05:47:25.529Z,11.10
2022-08-28T05:48:32.873Z,10.40
2022-08-28T05:49:40.791Z,7.68
2022-08-28T05:50:47.542Z,7.28
2022-08-28T05:51:50.828Z,7.07
2022-08-28T05:52:53.046Z,7.85
2022-08-28T05:53:57.746Z,11.20
2022-08-28T05:55:00.698Z,12.90
2022-08-28T05:56:07.040Z,5.90
2022-08-28T05:57:09.389Z,11.20
2022-08-28T05:58:31.201Z,10.35
2022-08-28T05:59:33.451Z,7.25
2022-08-28T06:00:35.669Z,9.13
2022-08-28T06:01:46.859Z,8.32
2022-08-28T06:02:49.828Z,8.93
2022-08-28T06:04:17.870Z,8.57
2022-08-28T06:05:20.305Z,9.10
2022-08-28T06:06:24.730Z,9.15
2022-08-28T06:07:30.038Z,8.63
2022-08-28T06:08:33.219Z,11.05
2022-08-28T06:09:35.454Z,11.10
2022-08-28T06:10:45.913Z,12.73
2022-08-28T06:11:59.169Z,8.43
2022-08-28T06:13:02.340Z,7.40
2022-08-28T06:14:11.119Z,7.78
2022-08-28T06:15:13.336Z,7.20
2022-08-28T06:16:15.640Z,7.05
2022-08-28T06:17:17.933Z,10.45
2022-08-28T06:18:26.752Z,8.90
2022-08-28T06:19:30.961Z,7.22
2022-08-28T06:20:37.820Z,6.35
2022-08-28T06:21:41.609Z,9.30
2022-08-28T06:22:44.055Z,7.65
2022-08-28T06:23:46.254Z,8.93
2022-08-28T06:24:48.439Z,9.35
2022-08-28T06:25:51.789Z,7.63
2022-08-28T06:26:58.086Z,9.80
2022-08-28T06:28:01.153Z,9.63
2022-08-28T06:29:06.502Z,10.23
2022-08-28T06:30:09.572Z,8.50
2022-08-28T06:31:23.665Z,7.53
2022-08-28T06:32:27.763Z,7.22
2022-08-28T06:33:30.456Z,10.57
2022-08-28T06:34:33.092Z,7.35
2022-08-28T06:35:40.807Z,7.10
2022-08-28T06:36:43.103Z,6.63
2022-08-28T06:37:45.267Z,7.25
2022-08-28T06:38:47.467Z,7.38
2022-08-28T06:39:49.627Z,9.57
2022-08-28T06:40:55.021Z,7.25
2022-08-28T06:41:57.257Z,10.40
2022-08-28T06:42:59.446Z,6.63
2022-08-28T06:44:01.758Z,8.15
2022-08-28T06:45:07.362Z,8.80
2022-08-28T06:46:09.747Z,8.10
2022-08-28T06:47:14.885Z,7.43
2022-08-28T06:48:19.797Z,7.40
2022-08-28T06:49:22.087Z,9.63
2022-08-28T06:50:24.328Z,9.82
2022-08-28T06:51:34.203Z,8.68
2022-08-28T06:52:36.401Z,8.15
2022-08-28T06:53:42.764Z,8.77
2022-08-28T06:54:55.277Z,6.20
2022-08-28T06:56:07.379Z,10.60
2022-08-28T06:57:10.065Z,6.00
2022-08-28T06:58:13.209Z,7.25
2022-08-28T06:59:15.557Z,8.27
2022-08-28T07:00:18.260Z,6.75
2022-08-28T07:01:29.731Z,6.35
2022-08-28T07:02:35.511Z,6.97
2022-08-28T07:03:44.392Z,12.10
2022-08-28T07:04:51.449Z,8.55
2022-08-28T07:05:58.462Z,9.32
2022-08-28T07:07:00.682Z,7.25
2022-08-28T07:08:03.132Z,7.07
2022-08-28T07:09:07.530Z,10.30
2022-08-28T07:10:10.140Z,6.97
2022-08-28T07:12:40.542Z,6.65
2022-08-28T07:13:44.815Z,7.75
2022-08-28T07:14:46.996Z,6.70
2022-08-28T07:15:49.284Z,6.78
2022-08-28T07:16:51.885Z,6.60
2022-08-28T07:17:54.205Z,7.75
2022-08-28T07:18:57.326Z,8.98
2022-08-28T07:19:59.591Z,8.23
2022-08-28T07:21:02.374Z,6.82
2022-08-28T07:22:05.026Z,6.95
2022-08-28T07:23:10.828Z,8.25
2022-08-28T07:24:15.460Z,10.57
2022-08-28T07:25:17.820Z,6.47
2022-08-28T07:26:24.537Z,7.43
2022-08-28T07:27:26.775Z,10.40
2022-08-28T07:28:29.289Z,10.52
2022-08-28T07:29:31.480Z,6.88
2022-08-28T07:30:33.756Z,9.48
2022-08-28T07:31:36.685Z,6.68
2022-08-28T07:32:41.823Z,8.05
2022-08-28T07:33:44.415Z,7.60
2022-08-28T07:34:46.685Z,8.00
2022-08-28T07:35:50.577Z,10.80
2022-08-28T07:36:52.768Z,9.00
2022-08-28T07:37:55.013Z,9.60
2022-08-28T07:38:59.362Z,7.03
2022-08-28T07:40:01.747Z,9.27
2022-08-28T07:41:04.594Z,8.43
2022-08-28T07:42:07.008Z,5.88
2022-08-28T07:43:28.049Z,9.07
2022-08-28T07:44:51.194Z,8.90
2022-08-28T07:46:11.611Z,9.68
2022-08-28T07:47:14.192Z,5.88
2022-08-28T07:48:16.853Z,9.38
2022-08-28T07:49:24.717Z,7.13
2022-08-28T07:50:26.937Z,8.57
2022-08-28T07:51:29.288Z,9.55
2022-08-28T07:52:31.476Z,8.60
2022-08-28T07:53:41.331Z,8.48
2022-08-28T07:54:43.515Z,8.05
2022-08-28T07:55:45.731Z,7.20
2022-08-28T07:56:48.577Z,8.60
2022-08-28T07:57:50.773Z,8.35
2022-08-28T07:58:56.903Z,8.25
2022-08-28T07:59:59.617Z,9.02
2022-08-28T08:01:01.921Z,8.35
2022-08-28T08:02:05.934Z,7.75
2022-08-28T08:03:08.310Z,6.68
2022-08-28T08:04:16.076Z,8.35
2022-08-28T08:05:18.422Z,8.45
2022-08-28T08:06:21.525Z,6.25
2022-08-28T08:07:23.739Z,9.70
2022-08-28T08:08:26.486Z,8.93
2022-08-28T08:09:28.762Z,10.25
2022-08-28T08:10:34.171Z,6.50
2022-08-28T08:11:36.874Z,8.38
2022-08-28T08:12:39.068Z,6.53
2022-08-28T08:13:41.409Z,7.22
2022-08-28T08:14:44.364Z,10.40
2022-08-28T08:15:47.525Z,5.93
2022-08-28T08:16:53.564Z,8.77
2022-08-28T08:17:55.736Z,9.48
2022-08-28T08:18:58.199Z,7.25
2022-08-28T08:20:01.257Z,6.70
2022-08-28T08:21:09.990Z,7.88
2022-08-28T08:22:12.562Z,8.65
2022-08-28T08:23:15.573Z,7.65
2022-08-28T08:24:21.110Z,11.88
2022-08-28T08:25:23.371Z,6.93
2022-08-28T08:26:28.402Z,9.43
2022-08-28T08:28:50.627Z,10.57
2022-08-28T08:29:52.907Z,9.25
2022-08-28T08:31:05.736Z,8.75
2022-08-28T08:32:11.021Z,8.18
2022-08-28T08:33:13.619Z,10.15
2022-08-28T08:34:16.606Z,6.47
2022-08-28T08:35:18.861Z,7.65
2022-08-28T08:36:23.230Z,10.90
2022-08-28T08:37:25.495Z,7.80
2022-08-28T08:38:31.287Z,9.05
2022-08-28T08:39:37.860Z,9.02
2022-08-28T08:40:40.111Z,8.13
2022-08-28T08:41:48.225Z,7.75
2022-08-28T08:42:57.148Z,12.38
2022-08-28T08:44:17.976Z,7.68
2022-08-28T08:45:24.473Z,8.07
2022-08-28T08:46:52.417Z,7.85
2022-08-28T08:47:56.999Z,10.13
2022-08-28T08:49:03.124Z,11.18
2022-08-28T08:50:18.604Z,12.10
2022-08-28T08:51:40.174Z,9.75
2022-08-28T08:53:06.762Z,8.55
2022-08-28T08:54:22.633Z,8.82
2022-08-28T08:55:27.264Z,9.95
2022-08-28T08:56:34.919Z,7.30
2022-08-28T08:57:39.143Z,8.63
2022-08-28T08:58:45.680Z,6.63
2022-08-28T08:59:47.979Z,6.38
2022-08-28T09:01:09.646Z,9.40
2022-08-28T09:02:19.310Z,9.85
2022-08-28T09:03:32.693Z,7.82
2022-08-28T09:04:44.175Z,7.70
2022-08-28T09:05:54.171Z,10.82
2022-08-28T09:07:13.918Z,9.00
2022-08-28T09:08:31.956Z,8.35
2022-08-28T09:09:42.816Z,9.02
2022-08-28T09:10:55.233Z,7.78
2022-08-28T09:12:06.350Z,6.65
2022-08-28T09:13:24.103Z,12.43
2022-08-28T09:14:49.831Z,5.88
2022-08-28T09:15:52.432Z,9.68
2022-08-28T09:16:56.303Z,6.95
2022-08-28T09:18:15.707Z,8.85
2022-08-28T09:19:20.512Z,7.22
2022-08-28T09:20:33.281Z,7.38
2022-08-28T09:21:40.527Z,8.95
2022-08-28T09:22:46.263Z,7.30
2022-08-28T09:23:48.486Z,12.18
2022-08-28T09:24:52.009Z,7.65
2022-08-28T09:25:56.716Z,7.70
2022-08-28T09:27:23.236Z,8.35
2022-08-28T09:28:32.469Z,7.07
2022-08-28T09:29:36.670Z,9.80
2022-08-28T09:30:39.099Z,7.03
2022-08-28T09:31:41.986Z,7.80
2022-08-28T09:32:58.030Z,9.52
2022-08-28T09:34:26.648Z,6.43
2022-08-28T09:35:31.956Z,8.93
2022-08-28T09:36:36.509Z,8.55
2022-08-28T09:37:39.881Z,8.43
2022-08-28T09:38:42.134Z,11.48
2022-08-28T09:39:48.692Z,7.60
2022-08-28T09:41:26.717Z,8.73
2022-08-28T09:42:48.065Z,8.30
2022-08-28T09:43:50.332Z,9.70
2022-08-28T09:45:15.158Z,7.45
2022-08-28T09:46:29.342Z,9.65
2022-08-28T09:47:52.414Z,6.68
2022-08-28T09:49:08.779Z,7.57
2022-08-28T09:50:23.270Z,7.70
2022-08-28T09:51:25.436Z,5.70
2022-08-28T09:52:27.617Z,11.00
2022-08-28T09:53:32.613Z,8.63
2022-08-28T09:54:42.092Z,5.72
2022-08-28T09:56:21.175Z,8.35
2022-08-28T09:57:23.362Z,9.63
2022-08-28T09:58:50.710Z,5.72
2022-08-28T09:59:53.249Z,7.32
2022-08-28T10:01:13.249Z,8.68
2022-08-28T10:02:38.065Z,10.27
2022-08-28T10:04:04.207Z,9.02
2022-08-28T10:05:13.174Z,6.78
2022-08-28T10:06:21.873Z,6.53
2022-08-28T10:07:46.701Z,6.63
2022-08-28T10:09:06.134Z,8.35
2022-08-28T10:10:35.363Z,8.75
2022-08-28T10:11:46.751Z,6.38
2022-08-28T10:13:15.675Z,8.77
2022-08-28T10:14:37.418Z,8.38
2022-08-28T10:16:04.951Z,7.20
2022-08-28T10:17:30.040Z,6.28
2022-08-28T10:18:40.190Z,9.57
2022-08-28T10:20:00.851Z,11.60
2022-08-28T10:21:13.872Z,9.38
2022-08-28T10:22:41.460Z,6.95
2022-08-28T10:23:52.719Z,8.38
2022-08-28T10:25:23.595Z,7.68
2022-08-28T10:27:00.260Z,8.40
2022-08-28T10:28:23.959Z,6.95
2022-08-28T10:30:02.770Z,7.63
2022-08-28T10:31:21.742Z,6.50
2022-08-28T10:32:46.315Z,7.32
2022-08-28T10:34:02.631Z,6.90
2022-08-28T10:35:21.181Z,9.13
2022-08-28T10:36:34.864Z,7.13
2022-08-28T10:37:58.667Z,6.20
2022-08-28T10:39:30.094Z,6.57
2022-08-28T10:40:39.027Z,8.15
2022-08-28T10:41:50.986Z,7.00
2022-08-28T10:43:03.898Z,5.68
2022-08-28T10:44:07.772Z,8.02
2022-08-28T10:45:17.501Z,7.75
2022-08-28T10:46:27.220Z,7.40
2022-08-28T10:47:32.760Z,6.70
2022-08-28T10:48:56.271Z,6.25
2022-08-28T10:50:11.958Z,11.18
2022-08-28T10:51:34.928Z,6.45
2022-08-28T10:52:45.247Z,9.55
2022-08-28T10:53:54.414Z,8.90
2022-08-28T10:55:02.081Z,8.20
2022-08-28T10:56:13.245Z,8.80
2022-08-28T10:57:25.468Z,6.05
2022-08-28T10:58:27.814Z,5.82
2022-08-28T10:59:41.838Z,8.48
2022-08-28T11:00:45.480Z,5.85
2022-08-28T11:01:50.375Z,6.22
2022-08-28T11:02:58.356Z,8.13
2022-08-28T11:04:08.177Z,10.50
2022-08-28T11:05:11.493Z,7.78
2022-08-28T11:06:54.775Z,5.13
2022-08-28T11:08:03.368Z,8.43
2022-08-28T11:09:25.305Z,6.75
2022-08-28T11:10:50.582Z,8.43
2022-08-28T11:12:22.919Z,7.30
2022-08-28T11:13:57.519Z,7.72
2022-08-28T11:15:37.370Z,7.43
2022-08-28T11:16:47.189Z,10.45
2022-08-28T11:17:50.393Z,6.55
2022-08-28T11:19:01.104Z,7.30
2022-08-28T11:20:17.790Z,6.03
2022-08-28T11:21:37.119Z,5.68
2022-08-28T11:23:10.599Z,8.77
2022-08-28T11:24:31.349Z,7.65
2022-08-28T11:25:55.342Z,6.38
2022-08-28T11:27:03.957Z,6.15
2022-08-28T11:28:36.717Z,6.93
2022-08-28T11:30:11.280Z,6.88
2022-08-28T11:31:29.179Z,8.27
2022-08-28T11:32:31.758Z,6.28
2022-08-28T11:33:52.730Z,6.50
2022-08-28T11:35:01.593Z,4.97
2022-08-28T11:36:29.855Z,6.70
2022-08-28T11:37:44.458Z,9.02
2022-08-28T11:39:17.654Z,7.00
2022-08-28T11:40:32.354Z,5.93
2022-08-28T11:41:39.136Z,7.40
2022-08-28T11:42:42.035Z,8.00
2022-08-28T11:43:45.928Z,7.63
2022-08-28T11:44:48.155Z,5.57
2022-08-28T11:45:53.414Z,6.72
2022-08-28T11:47:34.592Z,6.25
2022-08-28T11:48:36.807Z,5.50
2022-08-28T11:49:42.196Z,7.03
2022-08-28T11:51:07.138Z,5.15
2022-08-28T11:52:37.163Z,8.85
2022-08-28T11:54:17.399Z,7.25
2022-08-28T11:55:30.123Z,9.93
2022-08-28T11:56:49.732Z,5.93
2022-08-28T11:59:35.441Z,6.43
2022-08-28T12:00:40.753Z,5.82
2022-08-28T12:01:43.115Z,8.75
2022-08-28T12:02:50.178Z,6.22
2022-08-28T12:04:01.929Z,5.40
2022-08-28T12:05:09.451Z,7.88
2022-08-28T12:06:16.463Z,5.70
2022-08-28T12:07:23.006Z,7.65
2022-08-28T12:08:59.098Z,5.68
2022-08-28T12:10:05.003Z,6.95
2022-08-28T12:11:07.805Z,7.25
2022-08-28T12:12:50.228Z,5.82
2022-08-28T12:13:55.297Z,8.10
2022-08-28T12:15:01.327Z,7.70
2022-08-28T12:16:06.699Z,4.80
2022-08-28T12:17:30.515Z,8.10
2022-08-28T12:18:46.557Z,6.90
2022-08-28T12:20:11.899Z,6.38
2022-08-28T12:21:21.502Z,5.35
2022-08-28T12:22:26.803Z,8.55
2022-08-28T12:23:43.617Z,6.82
2022-08-28T12:24:59.366Z,9.48
2022-08-28T12:26:05.804Z,5.53
2022-08-28T12:27:08.202Z,5.32
2022-08-28T12:28:26.051Z,8.45
2022-08-28T12:29:32.333Z,7.43
2022-08-28T12:30:52.354Z,8.35
2022-08-28T12:32:26.628Z,7.38
2022-08-28T12:33:43.629Z,8.90
2022-08-28T12:35:00.891Z,6.43
2022-08-28T12:36:06.070Z,5.70
2022-08-28T12:37:51.838Z,5.53
2022-08-28T12:39:01.483Z,7.03
2022-08-28T12:40:38.992Z,6.82
2022-08-28T12:41:47.096Z,5.50
2022-08-28T12:42:58.763Z,6.10
2022-08-28T12:44:01.398Z,7.97
2022-08-28T12:45:09.632Z,6.85
2022-08-28T12:46:19.762Z,6.15
2022-08-28T12:47:26.318Z,7.95
2022-08-28T12:48:31.756Z,6.43
2022-08-28T12:49:36.553Z,8.68
2022-08-28T12:50:40.278Z,7.07
2022-08-28T12:53:01.888Z,5.57
2022-08-28T12:54:08.327Z,8.60
2022-08-28T12:55:10.502Z,8.98
2022-08-28T12:56:15.184Z,6.40
2022-08-28T12:57:20.307Z,6.78
2022-08-28T12:58:45.413Z,7.78
2022-08-28T12:59:55.936Z,6.10
2022-08-28T13:01:06.479Z,6.53
2022-08-28T13:02:27.622Z,5.70
2022-08-28T13:03:30.249Z,3.88
2022-08-28T13:04:39.865Z,7.95
2022-08-28T13:05:42.572Z,6.60
2022-08-28T13:06:44.774Z,7.78
2022-08-28T13:07:50.022Z,7.30
2022-08-28T13:09:05.516Z,5.65
2022-08-28T13:10:32.289Z,7.07
2022-08-28T13:11:38.751Z,5.05
2022-08-28T13:12:55.872Z,6.40
2022-08-28T13:13:59.609Z,7.45
2022-08-28T13:15:02.512Z,7.20
2022-08-28T13:16:12.120Z,5.68
2022-08-28T13:17:35.488Z,7.00
2022-08-28T13:18:42.341Z,4.32
2022-08-28T13:19:44.537Z,6.07
2022-08-28T13:20:46.757Z,6.57
2022-08-28T13:21:51.939Z,7.00
2022-08-28T13:22:54.234Z,6.80
2022-08-28T13:23:58.679Z,6.60
2022-08-28T13:25:07.990Z,5.75
2022-08-28T13:26:19.059Z,5.97
2022-08-28T13:27:24.567Z,8.30
2022-08-28T13:28:27.149Z,5.30
2022-08-28T13:29:30.155Z,4.85
2022-08-28T13:30:35.248Z,6.22
2022-08-28T13:31:40.693Z,4.75
2022-08-28T13:32:55.772Z,7.03
2022-08-28T13:34:16.111Z,5.18
2022-08-28T13:35:20.754Z,7.18
2022-08-28T13:36:24.960Z,5.55
2022-08-28T13:37:47.184Z,6.43
2022-08-28T13:38:49.378Z,8.80
2022-08-28T13:39:51.577Z,5.80
2022-08-28T13:41:02.593Z,5.60
2022-08-28T13:42:10.582Z,5.63
2022-08-28T13:43:15.699Z,5.55
2022-08-28T13:44:27.090Z,7.15
2022-08-28T13:45:32.699Z,5.18
2022-08-28T13:46:44.972Z,5.82
2022-08-28T13:47:49.902Z,4.43
2022-08-28T13:48:54.857Z,6.07
2022-08-28T13:49:57.232Z,8.00
2022-08-28T13:51:04.840Z,8.80
2022-08-28T13:52:07.925Z,7.68
2022-08-28T13:53:16.803Z,6.78
2022-08-28T13:54:19.030Z,5.57
2022-08-28T13:55:22.244Z,6.07
2022-08-28T13:56:27.338Z,8.57
2022-08-28T13:57:29.583Z,6.88
2022-08-28T13:58:36.573Z,7.95
2022-08-28T13:59:38.796Z,5.80
2022-08-28T14:00:44.888Z,8.15
2022-08-28T14:02:06.280Z,7.57
2022-08-28T14:03:27.894Z,7.30
2022-08-28T14:04:30.101Z,5.45
2022-08-28T14:05:33.529Z,6.97
2022-08-28T14:06:38.378Z,5.97
2022-08-28T14:07:40.644Z,5.68
2022-08-28T14:08:47.273Z,5.90
2022-08-28T14:09:52.912Z,7.70
2022-08-28T14:10:58.543Z,6.47
2022-08-28T14:12:01.860Z,6.80
2022-08-28T14:13:04.036Z,6.07
2022-08-28T14:14:06.258Z,4.97
2022-08-28T14:15:12.187Z,6.68
2022-08-28T14:16:19.191Z,5.07
2022-08-28T14:17:21.699Z,5.82
2022-08-28T14:18:25.495Z,8.65
2022-08-28T14:19:28.434Z,4.72
2022-08-28T14:20:31.146Z,5.97
2022-08-28T14:21:34.967Z,5.95
2022-08-28T14:22:37.328Z,6.75
2022-08-28T14:23:39.509Z,5.55
2022-08-28T14:24:44.914Z,6.18
2022-08-28T14:25:47.558Z,5.63
2022-08-28T14:26:50.209Z,5.78
2022-08-28T14:27:52.458Z,6.55
2022-08-28T14:28:55.732Z,5.50
2022-08-28T14:29:57.928Z,7.70
2022-08-28T14:31:00.172Z,5.18
2022-08-28T14:32:04.187Z,5.32
2022-08-28T14:33:06.549Z,6.35
2022-08-28T14:34:11.190Z,6.03
2022-08-28T14:35:13.527Z,4.90
2022-08-28T14:36:18.325Z,5.50
2022-08-28T14:37:21.733Z,6.75
2022-08-28T14:38:23.956Z,7.15
2022-08-28T14:39:31.412Z,5.28
2022-08-28T14:40:38.349Z,6.35
2022-08-28T14:41:46.629Z,3.40
2022-08-28T14:42:50.963Z,7.80
2022-08-28T14:43:54.963Z,8.88
2022-08-28T14:44:59.759Z,5.63
2022-08-28T14:46:07.241Z,5.53
2022-08-28T14:47:12.178Z,5.28
2022-08-28T14:48:18.844Z,4.80
2022-08-28T14:49:21.971Z,6.53
2022-08-28T14:50:26.749Z,6.15
2022-08-28T14:51:32.013Z,7.30